sensor_id;sensor_type;location;lat;lon;timestamp;pressure;altitude;pressure_sealevel;temperature;humidity
53932;BME280;39844;52.496;13.482;2023-01-31T00:02:07;101121.25;;;4.23;71.35
53932;BME280;39844;52.496;13.482;2023-01-31T00:04:32;101123.81;;;4.22;71.19
53932;BME280;39844;52.496;13.482;2023-01-31T00:06:57;101124.69;;;4.22;71.69
53932;BME280;39844;52.496;13.482;2023-01-31T00:09:22;101125.47;;;4.20;71.39
53932;BME280;39844;52.496;13.482;2023-01-31T00:11:48;101121.06;;;4.17;71.71
53932;BME280;39844;52.496;13.482;2023-01-31T00:14:19;101120.22;;;4.17;71.59
53932;BME280;39844;52.496;13.482;2023-01-31T00:16:45;101134.03;;;4.16;71.53
53932;BME280;39844;52.496;13.482;2023-01-31T00:19:10;101142.72;;;4.16;71.73
53932;BME280;39844;52.496;13.482;2023-01-31T00:21:36;101145.31;;;4.16;71.78
53932;BME280;39844;52.496;13.482;2023-01-31T00:24:01;101154.72;;;4.13;72.24
53932;BME280;39844;52.496;13.482;2023-01-31T00:26:29;101157.38;;;4.14;72.37
53932;BME280;39844;52.496;13.482;2023-01-31T00:28:56;101150.41;;;4.13;72.37
53932;BME280;39844;52.496;13.482;2023-01-31T00:31:23;101159.91;;;4.13;72.41
53932;BME280;39844;52.496;13.482;2023-01-31T00:33:51;101154.72;;;4.13;72.34
53932;BME280;39844;52.496;13.482;2023-01-31T00:36:19;101150.41;;;4.13;72.15
53932;BME280;39844;52.496;13.482;2023-01-31T00:38:49;101159.09;;;4.14;72.34
53932;BME280;39844;52.496;13.482;2023-01-31T00:41:15;101163.41;;;4.13;72.24
53932;BME280;39844;52.496;13.482;2023-01-31T00:43:40;101170.31;;;4.13;72.19
53932;BME280;39844;52.496;13.482;2023-01-31T00:46:06;101168.56;;;4.12;72.06
53932;BME280;39844;52.496;13.482;2023-01-31T00:48:31;101183.19;;;4.10;72.08
53932;BME280;39844;52.496;13.482;2023-01-31T00:50:56;101176.47;;;4.16;71.55
53932;BME280;39844;52.496;13.482;2023-01-31T00:53:22;101178.16;;;4.14;71.85
53932;BME280;39844;52.496;13.482;2023-01-31T00:55:47;101192.84;;;4.14;72.16
53932;BME280;39844;52.496;13.482;2023-01-31T00:58:12;101192.00;;;4.15;72.35
53932;BME280;39844;52.496;13.482;2023-01-31T01:00:38;101200.66;;;4.14;72.43
53932;BME280;39844;52.496;13.482;2023-01-31T01:03:03;101205.06;;;4.16;72.16
53932;BME280;39844;52.496;13.482;2023-01-31T01:05:28;101203.41;;;4.20;72.27
53932;BME280;39844;52.496;13.482;2023-01-31T01:07:54;101215.59;;;4.22;71.83
53932;BME280;39844;52.496;13.482;2023-01-31T01:10:19;101217.38;;;4.23;72.12
53932;BME280;39844;52.496;13.482;2023-01-31T01:12:44;101220.00;;;4.25;71.72
53932;BME280;39844;52.496;13.482;2023-01-31T01:15:10;101212.31;;;4.28;71.55
53932;BME280;39844;52.496;13.482;2023-01-31T01:17:35;101225.41;;;4.31;71.69
53932;BME280;39844;52.496;13.482;2023-01-31T01:20:00;101228.81;;;4.30;71.75
53932;BME280;39844;52.496;13.482;2023-01-31T01:22:25;101241.91;;;4.33;71.12
53932;BME280;39844;52.496;13.482;2023-01-31T01:24:51;101217.63;;;4.32;71.43
53932;BME280;39844;52.496;13.482;2023-01-31T01:27:16;101235.03;;;4.35;70.93
53932;BME280;39844;52.496;13.482;2023-01-31T01:29:41;101229.84;;;4.35;70.92
53932;BME280;39844;52.496;13.482;2023-01-31T01:32:07;101229.00;;;4.36;70.54
53932;BME280;39844;52.496;13.482;2023-01-31T01:34:33;101228.19;;;4.37;71.00
53932;BME280;39844;52.496;13.482;2023-01-31T01:36:59;101239.44;;;4.37;70.98
53932;BME280;39844;52.496;13.482;2023-01-31T01:39:25;101231.63;;;4.37;70.66
53932;BME280;39844;52.496;13.482;2023-01-31T01:41:51;101230.78;;;4.37;70.83
53932;BME280;39844;52.496;13.482;2023-01-31T01:44:42;101237.63;;;4.35;70.91
53932;BME280;39844;52.496;13.482;2023-01-31T01:47:15;101245.38;;;4.33;71.26
53932;BME280;39844;52.496;13.482;2023-01-31T01:49:41;101243.69;;;4.34;71.32
53932;BME280;39844;52.496;13.482;2023-01-31T01:52:08;101252.31;;;4.33;71.05
53932;BME280;39844;52.496;13.482;2023-01-31T01:54:41;101254.91;;;4.33;71.17
53932;BME280;39844;52.496;13.482;2023-01-31T01:57:08;101276.53;;;4.32;71.24
53932;BME280;39844;52.496;13.482;2023-01-31T01:59:49;101275.75;;;4.34;70.84
53932;BME280;39844;52.496;13.482;2023-01-31T02:02:17;101287.88;;;4.35;70.49
53932;BME280;39844;52.496;13.482;2023-01-31T02:04:45;101288.78;;;4.36;70.78
53932;BME280;39844;52.496;13.482;2023-01-31T02:07:13;101289.66;;;4.36;70.81
53932;BME280;39844;52.496;13.482;2023-01-31T02:09:51;101294.78;;;4.35;71.03
53932;BME280;39844;52.496;13.482;2023-01-31T02:12:18;101296.56;;;4.36;70.83
53932;BME280;39844;52.496;13.482;2023-01-31T02:14:45;101292.19;;;4.35;71.35
53932;BME280;39844;52.496;13.482;2023-01-31T02:17:16;101293.06;;;4.34;71.69
53932;BME280;39844;52.496;13.482;2023-01-31T02:23:02;101299.13;;;4.34;71.74
53932;BME280;39844;52.496;13.482;2023-01-31T02:34:11;101348.53;;;4.36;71.36
53932;BME280;39844;52.496;13.482;2023-01-31T02:37:00;101345.13;;;4.37;71.63
53932;BME280;39844;52.496;13.482;2023-01-31T02:42:27;101351.16;;;4.36;72.05
53932;BME280;39844;52.496;13.482;2023-01-31T02:45:07;101347.66;;;4.35;71.88
53932;BME280;39844;52.496;13.482;2023-01-31T02:50:19;101332.84;;;4.33;71.30
53932;BME280;39844;52.496;13.482;2023-01-31T02:53:25;101344.09;;;4.32;71.35
53932;BME280;39844;52.496;13.482;2023-01-31T02:55:59;101335.41;;;4.31;71.33
53932;BME280;39844;52.496;13.482;2023-01-31T02:58:30;101333.50;;;4.26;71.80
53932;BME280;39844;52.496;13.482;2023-01-31T03:00:57;101335.09;;;4.21;72.00
53932;BME280;39844;52.496;13.482;2023-01-31T03:03:27;101334.88;;;4.15;72.39
53932;BME280;39844;52.496;13.482;2023-01-31T03:08:39;101344.09;;;4.05;72.80
53932;BME280;39844;52.496;13.482;2023-01-31T03:11:07;101336.19;;;4.02;72.91
53932;BME280;39844;52.496;13.482;2023-01-31T03:17:05;101328.00;;;3.89;74.09
53932;BME280;39844;52.496;13.482;2023-01-31T03:19:40;101330.47;;;3.86;74.27
53932;BME280;39844;52.496;13.482;2023-01-31T03:22:13;101329.59;;;3.85;73.84
53932;BME280;39844;52.496;13.482;2023-01-31T03:24:40;101351.94;;;3.80;74.31
53932;BME280;39844;52.496;13.482;2023-01-31T03:27:06;101335.34;;;3.76;74.77
53932;BME280;39844;52.496;13.482;2023-01-31T03:29:34;101340.47;;;3.73;75.38
53932;BME280;39844;52.496;13.482;2023-01-31T03:32:05;101339.47;;;3.70;75.40
53932;BME280;39844;52.496;13.482;2023-01-31T03:34:32;101354.16;;;3.69;75.61
53932;BME280;39844;52.496;13.482;2023-01-31T03:37:06;101348.84;;;3.66;75.86
53932;BME280;39844;52.496;13.482;2023-01-31T03:42:09;101361.69;;;3.62;76.22
53932;BME280;39844;52.496;13.482;2023-01-31T03:45:05;101364.25;;;3.60;76.33
53932;BME280;39844;52.496;13.482;2023-01-31T03:47:38;101371.19;;;3.61;76.22
53932;BME280;39844;52.496;13.482;2023-01-31T03:50:09;101363.41;;;3.61;76.50
53932;BME280;39844;52.496;13.482;2023-01-31T03:52:43;101367.66;;;3.59;76.76
53932;BME280;39844;52.496;13.482;2023-01-31T03:55:16;101369.34;;;3.59;76.57
53932;BME280;39844;52.496;13.482;2023-01-31T03:57:45;101383.22;;;3.59;76.49
53932;BME280;39844;52.496;13.482;2023-01-31T04:00:14;101362.47;;;3.59;76.90
53932;BME280;39844;52.496;13.482;2023-01-31T04:02:40;101366.72;;;3.57;77.38
53932;BME280;39844;52.496;13.482;2023-01-31T04:05:09;101376.19;;;3.55;77.29
53932;BME280;39844;52.496;13.482;2023-01-31T04:07:35;101389.97;;;3.54;77.66
53932;BME280;39844;52.496;13.482;2023-01-31T04:10:03;101378.69;;;3.54;77.43
53932;BME280;39844;52.496;13.482;2023-01-31T04:12:34;101384.75;;;3.53;77.48
53932;BME280;39844;52.496;13.482;2023-01-31T04:15:00;101398.53;;;3.52;77.84
53932;BME280;39844;52.496;13.482;2023-01-31T04:17:25;101389.00;;;3.51;77.93
53932;BME280;39844;52.496;13.482;2023-01-31T04:19:50;101392.41;;;3.50;77.94
53932;BME280;39844;52.496;13.482;2023-01-31T04:22:15;101393.19;;;3.47;78.50
53932;BME280;39844;52.496;13.482;2023-01-31T04:24:41;101410.59;;;3.50;78.31
53932;BME280;39844;52.496;13.482;2023-01-31T04:27:06;101402.03;;;3.52;78.23
53932;BME280;39844;52.496;13.482;2023-01-31T04:29:31;101398.59;;;3.53;78.47
53932;BME280;39844;52.496;13.482;2023-01-31T04:31:56;101389.09;;;3.54;78.63
53932;BME280;39844;52.496;13.482;2023-01-31T04:34:22;101401.13;;;3.52;78.89
53932;BME280;39844;52.496;13.482;2023-01-31T04:36:47;101393.31;;;3.50;79.19
53932;BME280;39844;52.496;13.482;2023-01-31T04:39:12;101396.69;;;3.48;79.30
53932;BME280;39844;52.496;13.482;2023-01-31T04:41:38;101402.69;;;3.47;79.44
53932;BME280;39844;52.496;13.482;2023-01-31T04:44:03;101406.13;;;3.46;79.86
53932;BME280;39844;52.496;13.482;2023-01-31T04:46:28;101413.06;;;3.47;79.87
53932;BME280;39844;52.496;13.482;2023-01-31T04:48:54;101425.09;;;3.45;80.05
53932;BME280;39844;52.496;13.482;2023-01-31T04:51:19;101415.53;;;3.44;80.05
53932;BME280;39844;52.496;13.482;2023-01-31T04:53:44;101422.44;;;3.43;80.52
53932;BME280;39844;52.496;13.482;2023-01-31T04:56:10;101430.22;;;3.43;80.69
53932;BME280;39844;52.496;13.482;2023-01-31T04:58:35;101432.81;;;3.43;80.69
53932;BME280;39844;52.496;13.482;2023-01-31T05:01:00;101448.38;;;3.43;80.85
53932;BME280;39844;52.496;13.482;2023-01-31T05:03:26;101446.69;;;3.44;81.02
53932;BME280;39844;52.496;13.482;2023-01-31T05:05:51;101442.38;;;3.44;80.92
53932;BME280;39844;52.496;13.482;2023-01-31T05:08:16;101438.13;;;3.46;81.00
53932;BME280;39844;52.496;13.482;2023-01-31T05:10:42;101439.84;;;3.46;81.14
53932;BME280;39844;52.496;13.482;2023-01-31T05:13:08;101441.69;;;3.48;81.11
53932;BME280;39844;52.496;13.482;2023-01-31T05:15:33;101441.69;;;3.48;81.20
53932;BME280;39844;52.496;13.482;2023-01-31T05:17:59;101439.13;;;3.50;80.76
53932;BME280;39844;52.496;13.482;2023-01-31T05:20:24;101446.88;;;3.48;81.01
53932;BME280;39844;52.496;13.482;2023-01-31T05:22:49;101452.88;;;3.47;81.12
53932;BME280;39844;52.496;13.482;2023-01-31T05:25:15;101459.00;;;3.49;81.59
53932;BME280;39844;52.496;13.482;2023-01-31T05:27:40;101445.22;;;3.50;81.50
53932;BME280;39844;52.496;13.482;2023-01-31T05:30:07;101442.66;;;3.52;81.35
53932;BME280;39844;52.496;13.482;2023-01-31T05:32:35;101429.63;;;3.50;81.58
53932;BME280;39844;52.496;13.482;2023-01-31T05:35:00;101447.84;;;3.52;81.97
53932;BME280;39844;52.496;13.482;2023-01-31T05:37:25;101443.50;;;3.51;81.74
53932;BME280;39844;52.496;13.482;2023-01-31T05:39:51;101443.53;;;3.52;82.15
53932;BME280;39844;52.496;13.482;2023-01-31T05:42:16;101455.78;;;3.56;81.68
53932;BME280;39844;52.496;13.482;2023-01-31T05:44:41;101465.47;;;3.60;81.20
53932;BME280;39844;52.496;13.482;2023-01-31T05:47:07;101451.72;;;3.63;81.45
53932;BME280;39844;52.496;13.482;2023-01-31T05:49:32;101458.78;;;3.67;81.18
53932;BME280;39844;52.496;13.482;2023-01-31T05:51:58;101458.88;;;3.70;80.96
53932;BME280;39844;52.496;13.482;2023-01-31T05:54:23;101456.31;;;3.71;80.99
53932;BME280;39844;52.496;13.482;2023-01-31T05:56:49;101446.03;;;3.73;81.18
53932;BME280;39844;52.496;13.482;2023-01-31T05:59:14;101450.44;;;3.75;81.17
53932;BME280;39844;52.496;13.482;2023-01-31T06:01:39;101456.59;;;3.79;81.23
53932;BME280;39844;52.496;13.482;2023-01-31T06:04:04;101455.00;;;3.82;81.37
53932;BME280;39844;52.496;13.482;2023-01-31T06:06:33;101448.13;;;3.84;81.18
53932;BME280;39844;52.496;13.482;2023-01-31T06:08:58;101457.75;;;3.87;81.48
53932;BME280;39844;52.496;13.482;2023-01-31T06:11:23;101451.84;;;3.91;81.41
53932;BME280;39844;52.496;13.482;2023-01-31T06:13:49;101462.28;;;3.93;81.42
53932;BME280;39844;52.496;13.482;2023-01-31T06:16:14;101453.72;;;3.95;81.26
53932;BME280;39844;52.496;13.482;2023-01-31T06:18:39;101460.72;;;3.98;81.32
53932;BME280;39844;52.496;13.482;2023-01-31T06:21:04;101463.34;;;3.99;81.46
53932;BME280;39844;52.496;13.482;2023-01-31T06:23:30;101471.22;;;4.01;81.25
53932;BME280;39844;52.496;13.482;2023-01-31T06:25:55;101478.19;;;4.02;81.10
53932;BME280;39844;52.496;13.482;2023-01-31T06:28:21;101478.19;;;4.02;81.58
53932;BME280;39844;52.496;13.482;2023-01-31T06:30:47;101480.78;;;4.02;81.71
53932;BME280;39844;52.496;13.482;2023-01-31T06:33:12;101489.50;;;4.04;81.78
53932;BME280;39844;52.496;13.482;2023-01-31T06:35:38;101488.63;;;4.03;81.79
53932;BME280;39844;52.496;13.482;2023-01-31T06:38:04;101493.00;;;4.04;82.04
53932;BME280;39844;52.496;13.482;2023-01-31T06:40:29;101493.84;;;4.05;81.93
53932;BME280;39844;52.496;13.482;2023-01-31T06:42:56;101494.72;;;4.04;82.17
53932;BME280;39844;52.496;13.482;2023-01-31T06:45:21;101489.50;;;4.04;82.16
53932;BME280;39844;52.496;13.482;2023-01-31T06:47:46;101492.13;;;4.04;82.33
53932;BME280;39844;52.496;13.482;2023-01-31T06:50:12;101485.28;;;4.07;81.71
53932;BME280;39844;52.496;13.482;2023-01-31T06:52:41;101492.31;;;4.10;81.99
53932;BME280;39844;52.496;13.482;2023-01-31T06:55:06;101484.50;;;4.10;82.05
53932;BME280;39844;52.496;13.482;2023-01-31T06:57:32;101487.19;;;4.11;82.08
53932;BME280;39844;52.496;13.482;2023-01-31T06:59:57;101495.00;;;4.13;82.00
53932;BME280;39844;52.496;13.482;2023-01-31T07:02:22;101490.75;;;4.15;82.04
53932;BME280;39844;52.496;13.482;2023-01-31T07:04:48;101484.72;;;4.16;82.28
53932;BME280;39844;52.496;13.482;2023-01-31T07:07:13;101488.22;;;4.16;82.53
53932;BME280;39844;52.496;13.482;2023-01-31T07:09:38;101483.06;;;4.18;82.59
53932;BME280;39844;52.496;13.482;2023-01-31T07:12:04;101492.63;;;4.19;83.05
53932;BME280;39844;52.496;13.482;2023-01-31T07:14:29;101498.66;;;4.18;83.29
53932;BME280;39844;52.496;13.482;2023-01-31T07:16:54;101484.88;;;4.20;83.39
53932;BME280;39844;52.496;13.482;2023-01-31T07:19:20;101476.25;;;4.21;83.60
53932;BME280;39844;52.496;13.482;2023-01-31T07:21:45;101485.75;;;4.21;84.22
53932;BME280;39844;52.496;13.482;2023-01-31T07:24:10;101469.38;;;4.22;84.57
53932;BME280;39844;52.496;13.482;2023-01-31T07:26:35;101459.81;;;4.22;84.92
53932;BME280;39844;52.496;13.482;2023-01-31T07:29:01;101460.69;;;4.21;85.19
53932;BME280;39844;52.496;13.482;2023-01-31T07:31:26;101464.16;;;4.22;85.25
53932;BME280;39844;52.496;13.482;2023-01-31T07:33:51;101484.94;;;4.22;85.56
53932;BME280;39844;52.496;13.482;2023-01-31T07:36:16;101479.78;;;4.23;85.78
53932;BME280;39844;52.496;13.482;2023-01-31T07:38:42;101489.28;;;4.23;86.00
53932;BME280;39844;52.496;13.482;2023-01-31T07:41:08;101491.88;;;4.23;86.37
53932;BME280;39844;52.496;13.482;2023-01-31T07:43:34;101485.00;;;4.23;86.14
53932;BME280;39844;52.496;13.482;2023-01-31T07:46:00;101491.06;;;4.24;86.33
53932;BME280;39844;52.496;13.482;2023-01-31T07:48:26;101488.47;;;4.24;86.37
53932;BME280;39844;52.496;13.482;2023-01-31T07:50:56;101497.19;;;4.26;86.67
53932;BME280;39844;52.496;13.482;2023-01-31T07:53:22;101471.25;;;4.27;86.55
53932;BME280;39844;52.496;13.482;2023-01-31T07:55:47;101481.66;;;4.27;86.62
53932;BME280;39844;52.496;13.482;2023-01-31T07:58:14;101478.22;;;4.28;86.59
53932;BME280;39844;52.496;13.482;2023-01-31T08:00:40;101474.81;;;4.29;86.55
53932;BME280;39844;52.496;13.482;2023-01-31T08:03:16;101486.13;;;4.31;86.85
53932;BME280;39844;52.496;13.482;2023-01-31T08:05:45;101475.78;;;4.33;86.45
53932;BME280;39844;52.496;13.482;2023-01-31T08:08:11;101477.56;;;4.34;86.73
53932;BME280;39844;52.496;13.482;2023-01-31T08:10:37;101462.88;;;4.36;86.81
53932;BME280;39844;52.496;13.482;2023-01-31T08:13:02;101472.47;;;4.37;86.54
53932;BME280;39844;52.496;13.482;2023-01-31T08:15:27;101466.47;;;4.39;86.52
53932;BME280;39844;52.496;13.482;2023-01-31T08:17:52;101464.81;;;4.41;86.54
53932;BME280;39844;52.496;13.482;2023-01-31T08:20:18;101465.78;;;4.45;86.43
53932;BME280;39844;52.496;13.482;2023-01-31T08:22:43;101464.13;;;4.47;86.05
53932;BME280;39844;52.496;13.482;2023-01-31T08:25:08;101463.38;;;4.51;85.98
53932;BME280;39844;52.496;13.482;2023-01-31T08:27:34;101461.78;;;4.55;86.02
53932;BME280;39844;52.496;13.482;2023-01-31T08:29:59;101466.19;;;4.57;85.79
53932;BME280;39844;52.496;13.482;2023-01-31T08:32:24;101464.53;;;4.59;85.84
53932;BME280;39844;52.496;13.482;2023-01-31T08:34:49;101458.50;;;4.60;85.67
53932;BME280;39844;52.496;13.482;2023-01-31T08:37:15;101460.31;;;4.63;85.70
53932;BME280;39844;52.496;13.482;2023-01-31T08:39:40;101459.41;;;4.62;85.93
53932;BME280;39844;52.496;13.482;2023-01-31T08:42:05;101449.03;;;4.62;85.87
53932;BME280;39844;52.496;13.482;2023-01-31T08:44:31;101449.03;;;4.62;86.12
53932;BME280;39844;52.496;13.482;2023-01-31T08:46:56;101453.34;;;4.62;86.61
53932;BME280;39844;52.496;13.482;2023-01-31T08:49:21;101454.22;;;4.62;86.94
53932;BME280;39844;52.496;13.482;2023-01-31T08:51:46;101455.03;;;4.61;87.05
53932;BME280;39844;52.496;13.482;2023-01-31T08:54:12;101456.75;;;4.61;87.42
53932;BME280;39844;52.496;13.482;2023-01-31T08:56:37;101447.25;;;4.61;88.01
53932;BME280;39844;52.496;13.482;2023-01-31T08:59:02;101449.84;;;4.61;87.83
53932;BME280;39844;52.496;13.482;2023-01-31T09:01:27;101440.38;;;4.63;87.66
53932;BME280;39844;52.496;13.482;2023-01-31T09:03:53;101449.13;;;4.65;87.52
53932;BME280;39844;52.496;13.482;2023-01-31T09:06:20;101443.06;;;4.66;87.26
53932;BME280;39844;52.496;13.482;2023-01-31T09:08:45;101444.84;;;4.67;87.08
53932;BME280;39844;52.496;13.482;2023-01-31T09:11:12;101444.06;;;4.70;87.34
53932;BME280;39844;52.496;13.482;2023-01-31T09:13:37;101441.50;;;4.71;87.12
53932;BME280;39844;52.496;13.482;2023-01-31T09:16:08;101442.41;;;4.73;86.94
53932;BME280;39844;52.496;13.482;2023-01-31T09:18:35;101426.81;;;4.73;86.59
53932;BME280;39844;52.496;13.482;2023-01-31T09:21:17;101428.59;;;4.74;86.29
53932;BME280;39844;52.496;13.482;2023-01-31T09:23:43;101428.59;;;4.74;86.33
53932;BME280;39844;52.496;13.482;2023-01-31T09:26:10;101432.13;;;4.76;86.31
53932;BME280;39844;52.496;13.482;2023-01-31T09:28:36;101416.50;;;4.76;86.14
53932;BME280;39844;52.496;13.482;2023-01-31T09:31:06;101421.81;;;4.79;85.53
53932;BME280;39844;52.496;13.482;2023-01-31T09:33:33;101425.34;;;4.81;84.95
53932;BME280;39844;52.496;13.482;2023-01-31T09:36:04;101421.94;;;4.84;84.68
53932;BME280;39844;52.496;13.482;2023-01-31T09:38:30;101413.34;;;4.86;84.90
53932;BME280;39844;52.496;13.482;2023-01-31T09:40:56;101408.22;;;4.88;85.07
53932;BME280;39844;52.496;13.482;2023-01-31T09:43:27;101407.47;;;4.92;84.59
53932;BME280;39844;52.496;13.482;2023-01-31T09:45:57;101400.63;;;4.95;84.72
53932;BME280;39844;52.496;13.482;2023-01-31T09:48:28;101408.50;;;4.98;84.54
53932;BME280;39844;52.496;13.482;2023-01-31T09:50:57;101404.25;;;5.00;83.84
53932;BME280;39844;52.496;13.482;2023-01-31T09:53:27;101398.28;;;5.04;83.69
53932;BME280;39844;52.496;13.482;2023-01-31T10:01:30;101378.72;;;5.17;83.00
53932;BME280;39844;52.496;13.482;2023-01-31T10:07:08;101365.03;;;5.24;82.09
53932;BME280;39844;52.496;13.482;2023-01-31T10:09:44;101378.09;;;5.26;81.66
53932;BME280;39844;52.496;13.482;2023-01-31T10:14:45;101366.81;;;5.27;81.07
53932;BME280;39844;52.496;13.482;2023-01-31T10:17:19;101363.44;;;5.29;81.27
53932;BME280;39844;52.496;13.482;2023-01-31T10:19:59;101362.63;;;5.32;80.84
53932;BME280;39844;52.496;13.482;2023-01-31T10:22:34;101352.41;;;5.38;80.87
53932;BME280;39844;52.496;13.482;2023-01-31T10:27:48;101331.69;;;5.42;79.79
53932;BME280;39844;52.496;13.482;2023-01-31T10:30:18;101346.50;;;5.45;79.89
53932;BME280;39844;52.496;13.482;2023-01-31T10:32:50;101325.69;;;5.45;79.14
53932;BME280;39844;52.496;13.482;2023-01-31T10:37:52;101319.66;;;5.46;79.28
53932;BME280;39844;52.496;13.482;2023-01-31T10:40:21;101319.66;;;5.46;79.76
53932;BME280;39844;52.496;13.482;2023-01-31T10:42:50;101300.56;;;5.47;79.84
53932;BME280;39844;52.496;13.482;2023-01-31T10:47:55;101302.25;;;5.45;81.69
53932;BME280;39844;52.496;13.482;2023-01-31T10:50:37;101307.38;;;5.42;81.97
53932;BME280;39844;52.496;13.482;2023-01-31T10:58:35;101288.41;;;5.46;82.43
53932;BME280;39844;52.496;13.482;2023-01-31T11:01:03;101282.41;;;5.48;82.51
53932;BME280;39844;52.496;13.482;2023-01-31T11:03:29;101281.59;;;5.51;82.26
53932;BME280;39844;52.496;13.482;2023-01-31T11:05:56;101276.56;;;5.58;82.16
53932;BME280;39844;52.496;13.482;2023-01-31T11:08:35;101273.16;;;5.61;81.37
53932;BME280;39844;52.496;13.482;2023-01-31T11:11:12;101263.69;;;5.64;81.39
53932;BME280;39844;52.496;13.482;2023-01-31T11:13:38;101257.66;;;5.65;80.71
53932;BME280;39844;52.496;13.482;2023-01-31T11:16:07;101246.44;;;5.68;81.30
53932;BME280;39844;52.496;13.482;2023-01-31T11:18:45;101256.94;;;5.72;80.74
53932;BME280;39844;52.496;13.482;2023-01-31T11:21:19;101247.41;;;5.73;80.46
53932;BME280;39844;52.496;13.482;2023-01-31T11:23:46;101250.03;;;5.73;80.53
53932;BME280;39844;52.496;13.482;2023-01-31T11:26:11;101235.19;;;5.69;80.36
53932;BME280;39844;52.496;13.482;2023-01-31T11:28:38;101221.22;;;5.67;80.58
53932;BME280;39844;52.496;13.482;2023-01-31T11:31:06;101221.22;;;5.67;81.28
53932;BME280;39844;52.496;13.482;2023-01-31T11:33:44;101210.78;;;5.67;81.53
53932;BME280;39844;52.496;13.482;2023-01-31T11:36:15;101211.66;;;5.66;81.99
53932;BME280;39844;52.496;13.482;2023-01-31T11:38:41;101203.84;;;5.66;82.53
53932;BME280;39844;52.496;13.482;2023-01-31T11:41:26;101196.03;;;5.66;82.77
53932;BME280;39844;52.496;13.482;2023-01-31T11:44:17;101192.53;;;5.64;83.66
53932;BME280;39844;52.496;13.482;2023-01-31T11:51:54;101175.09;;;5.61;84.81
53932;BME280;39844;52.496;13.482;2023-01-31T11:54:24;101179.44;;;5.61;85.09
53932;BME280;39844;52.496;13.482;2023-01-31T11:56:50;101168.94;;;5.58;84.88
53932;BME280;39844;52.496;13.482;2023-01-31T11:59:19;101156.75;;;5.57;84.28
53932;BME280;39844;52.496;13.482;2023-01-31T12:01:50;101161.94;;;5.57;84.58
53932;BME280;39844;52.496;13.482;2023-01-31T12:04:30;101142.88;;;5.56;84.76
53932;BME280;39844;52.496;13.482;2023-01-31T12:07:18;101127.25;;;5.56;84.33
53932;BME280;39844;52.496;13.482;2023-01-31T12:09:44;101122.94;;;5.58;84.22
53932;BME280;39844;52.496;13.482;2023-01-31T12:12:41;101107.28;;;5.57;84.04
53932;BME280;39844;52.496;13.482;2023-01-31T12:15:14;101094.25;;;5.57;84.61
53932;BME280;39844;52.496;13.482;2023-01-31T12:17:44;101089.88;;;5.54;84.92
53932;BME280;39844;52.496;13.482;2023-01-31T12:22:43;101083.72;;;5.51;87.21
53932;BME280;39844;52.496;13.482;2023-01-31T12:28:23;101065.34;;;5.45;89.45
53932;BME280;39844;52.496;13.482;2023-01-31T12:36:46;101054.63;;;5.30;90.06
53932;BME280;39844;52.496;13.482;2023-01-31T12:44:46;101043.09;;;5.19;91.55
53932;BME280;39844;52.496;13.482;2023-01-31T12:50:11;101044.59;;;5.09;93.06
53932;BME280;39844;52.496;13.482;2023-01-31T12:56:02;101026.19;;;5.01;95.22
53932;BME280;39844;52.496;13.482;2023-01-31T12:58:47;101019.19;;;4.97;96.06
53932;BME280;39844;52.496;13.482;2023-01-31T13:01:23;101030.34;;;4.93;96.39
53932;BME280;39844;52.496;13.482;2023-01-31T13:04:05;101027.69;;;4.90;97.42
53932;BME280;39844;52.496;13.482;2023-01-31T13:06:40;101018.94;;;4.87;98.05
53932;BME280;39844;52.496;13.482;2023-01-31T13:09:12;101012.75;;;4.83;99.10
53932;BME280;39844;52.496;13.482;2023-01-31T13:14:28;101007.44;;;4.77;100.00
53932;BME280;39844;52.496;13.482;2023-01-31T13:16:59;101001.38;;;4.78;100.00
53932;BME280;39844;52.496;13.482;2023-01-31T13:19:31;101000.47;;;4.76;100.00
53932;BME280;39844;52.496;13.482;2023-01-31T13:22:01;100994.44;;;4.77;100.00
53932;BME280;39844;52.496;13.482;2023-01-31T13:24:36;100990.94;;;4.75;100.00
53932;BME280;39844;52.496;13.482;2023-01-31T13:27:15;100991.75;;;4.74;100.00
53932;BME280;39844;52.496;13.482;2023-01-31T13:29:48;100991.75;;;4.74;100.00
53932;BME280;39844;52.496;13.482;2023-01-31T13:32:24;100988.28;;;4.74;100.00
53932;BME280;39844;52.496;13.482;2023-01-31T13:35:22;100974.38;;;4.73;100.00
53932;BME280;39844;52.496;13.482;2023-01-31T13:37:54;100977.00;;;4.73;100.00
53932;BME280;39844;52.496;13.482;2023-01-31T13:40:26;100983.94;;;4.73;100.00
53932;BME280;39844;52.496;13.482;2023-01-31T13:42:53;100984.78;;;4.73;100.00
53932;BME280;39844;52.496;13.482;2023-01-31T13:45:43;100966.59;;;4.73;100.00
53932;BME280;39844;52.496;13.482;2023-01-31T13:48:21;100967.47;;;4.74;100.00
53932;BME280;39844;52.496;13.482;2023-01-31T13:51:13;100973.56;;;4.74;100.00
53932;BME280;39844;52.496;13.482;2023-01-31T13:53:48;100966.66;;;4.75;100.00
53932;BME280;39844;52.496;13.482;2023-01-31T13:56:36;100965.78;;;4.76;100.00
53932;BME280;39844;52.496;13.482;2023-01-31T13:59:07;100959.78;;;4.78;100.00
53932;BME280;39844;52.496;13.482;2023-01-31T14:01:34;100962.44;;;4.80;100.00
53932;BME280;39844;52.496;13.482;2023-01-31T14:09:35;100974.56;;;4.81;100.00
53932;BME280;39844;52.496;13.482;2023-01-31T14:12:24;100975.44;;;4.81;100.00
53932;BME280;39844;52.496;13.482;2023-01-31T14:14:51;100980.66;;;4.81;100.00
53932;BME280;39844;52.496;13.482;2023-01-31T14:22:24;100965.09;;;4.83;100.00
53932;BME280;39844;52.496;13.482;2023-01-31T14:51:45;100930.50;;;4.87;100.00
53932;BME280;39844;52.496;13.482;2023-01-31T14:54:36;100924.50;;;4.89;100.00
53932;BME280;39844;52.496;13.482;2023-01-31T14:57:12;100928.00;;;4.91;100.00
53932;BME280;39844;52.496;13.482;2023-01-31T15:00:04;100921.97;;;4.92;100.00